Sayler Park, Ohio
Current Conditions -  °F | °C
As of 6:53 PM on Monday 22 Dec 2014 (Local Time) from KI69 Reporting Station
Broken Clouds Broken Clouds  
Wind Chill: 45°   Ceiling: 11000
Heat Index: 48°   Visibility: 10mi
Dew Point: 37°   Wind: 8mph
Humidity: 66%   Direction: 120°ESE
Pressure: 29.8"   Gusts: NA
Location:  39.1192°N, 84.6634°W
Report Text: KI69 222353Z AUTO 12007KT 10SM SCT085 BKN110 09/03 A2980 RMK AO1
Loading
Personal Weather Stations






























Interactive Weather Map New forecast layout! Learn more

10-Day Weather Forecast

Advertisements
Track Severe Weather on mobile